Time;durP1;ratioP1;P1;durP2;ratioP2;P2;SDS_P1;SDS_P2;PMS_P1;PMS_P2;Temp;Humidity;BMP_temperature;BMP_pressure;BME280_temperature;BME280_humidity;BME280_pressure;Samples;Min_cycle;Max_cycle;Signal;HPM_P1;HPM_P2
2021/07/12 00:02:31;;;;;;;;;;;24.40;45.70;;;;;;8326670;28;19917;-48
2021/07/12 00:06:31;;;;;;;;;;;24.40;45.70;;;;;;8327013;28;19925;-48
2021/07/12 00:10:32;;;;;;;;;;;24.40;45.70;;;;;;8325992;28;19924;-48
2021/07/12 00:14:32;;;;;;;;;;;24.40;45.80;;;;;;8331065;28;19918;-49
2021/07/12 00:18:33;;;;;;;;;;;24.40;45.70;;;;;;8326527;28;19943;-48
2021/07/12 00:22:34;;;;;;;;;;;24.40;45.80;;;;;;8326288;28;19917;-48
2021/07/12 00:26:34;;;;;;;;;;;24.30;45.70;;;;;;8326094;28;19971;-48
2021/07/12 00:30:35;;;;;;;;;;;24.30;45.70;;;;;;8330848;28;19917;-48
2021/07/12 00:34:35;;;;;;;;;;;24.30;45.70;;;;;;8325887;28;20013;-47
2021/07/12 00:38:36;;;;;;;;;;;24.30;45.70;;;;;;8326196;28;20008;-49
2021/07/12 00:42:38;;;;;;;;;;;24.30;45.70;;;;;;8326312;28;19921;-47
2021/07/12 00:46:38;;;;;;;;;;;24.30;45.70;;;;;;8331926;28;19958;-47
2021/07/12 00:50:40;;;;;;;;;;;24.30;45.70;;;;;;8336918;28;19940;-47
2021/07/12 00:54:40;;;;;;;;;;;24.30;45.70;;;;;;8332371;28;20404;-47
2021/07/12 00:58:41;;;;;;;;;;;24.30;45.70;;;;;;8331818;28;19917;-48
2021/07/12 01:02:42;;;;;;;;;;;24.30;45.80;;;;;;8331503;28;20000;-47
2021/07/12 01:06:42;;;;;;;;;;;24.20;45.70;;;;;;8336908;28;19936;-48
2021/07/12 01:10:46;;;;;;;;;;;24.30;45.80;;;;;;8331273;28;19921;-48
2021/07/12 01:14:50;;;;;;;;;;;24.20;45.70;;;;;;8330970;28;19921;-48
2021/07/12 01:19:07;;;;;;;;;;;24.20;45.80;;;;;;8331503;28;19918;-48
2021/07/12 01:23:10;;;;;;;;;;;24.20;45.80;;;;;;8331330;28;19921;-48
2021/07/12 01:27:29;;;;;;;;;;;24.20;45.80;;;;;;8335726;28;19921;-48
2021/07/12 01:31:48;;;;;;;;;;;24.20;45.80;;;;;;8330663;28;19917;-49
2021/07/12 01:35:55;;;;;;;;;;;24.20;45.80;;;;;;8330913;28;19944;-48
2021/07/12 01:40:10;;;;;;;;;;;24.20;45.80;;;;;;8331089;28;19959;-52
2021/07/12 01:44:23;;;;;;;;;;;24.20;45.80;;;;;;8330695;28;19917;-52
2021/07/12 01:48:30;;;;;;;;;;;24.10;45.80;;;;;;8335122;28;19933;-51
2021/07/12 01:52:35;;;;;;;;;;;24.20;45.90;;;;;;8330443;28;19957;-51
2021/07/12 01:56:42;;;;;;;;;;;24.10;45.80;;;;;;8329782;28;19917;-48
2021/07/12 02:00:45;;;;;;;;;;;24.10;45.80;;;;;;8330258;28;19917;-48
2021/07/12 02:04:45;;;;;;;;;;;24.10;45.80;;;;;;8329677;28;19984;-51
2021/07/12 02:08:47;;;;;;;;;;;24.10;45.80;;;;;;8334732;28;19925;-49
2021/07/12 02:12:49;;;;;;;;;;;24.10;45.90;;;;;;8330114;28;19971;-49
2021/07/12 02:16:52;;;;;;;;;;;24.10;45.90;;;;;;8329397;28;19948;-52
2021/07/12 02:20:54;;;;;;;;;;;24.10;45.90;;;;;;8329502;28;19971;-49
2021/07/12 02:24:59;;;;;;;;;;;24.10;45.90;;;;;;8334150;28;19945;-49
2021/07/12 02:29:01;;;;;;;;;;;24.00;45.80;;;;;;8328821;28;19925;-48
2021/07/12 02:33:02;;;;;;;;;;;24.00;45.80;;;;;;8329178;28;19921;-49
2021/07/12 02:37:03;;;;;;;;;;;24.00;46.40;;;;;;8329559;28;20016;-47
2021/07/12 02:41:04;;;;;;;;;;;24.00;45.90;;;;;;8328642;28;20471;-48
2021/07/12 02:45:05;;;;;;;;;;;24.00;45.90;;;;;;8333713;28;20400;-48
2021/07/12 02:49:06;;;;;;;;;;;24.00;45.90;;;;;;8328255;28;19925;-49
2021/07/12 02:53:10;;;;;;;;;;;24.00;45.90;;;;;;8328727;28;19982;-50
2021/07/12 02:57:11;;;;;;;;;;;24.00;45.90;;;;;;8328639;28;20392;-47
2021/07/12 03:01:12;;;;;;;;;;;24.00;45.90;;;;;;8332499;28;19917;-48
2021/07/12 03:05:12;;;;;;;;;;;24.00;45.90;;;;;;8328155;28;20004;-48
2021/07/12 03:09:13;;;;;;;;;;;24.00;45.90;;;;;;8327520;28;19960;-48
2021/07/12 03:13:20;;;;;;;;;;;23.90;45.90;;;;;;8327434;28;19917;-47
2021/07/12 03:17:22;;;;;;;;;;;23.90;45.90;;;;;;8328137;28;19928;-47
2021/07/12 03:21:23;;;;;;;;;;;23.90;45.90;;;;;;8332231;28;19924;-47
2021/07/12 03:25:28;;;;;;;;;;;23.90;45.90;;;;;;8327284;28;19921;-48
2021/07/12 03:29:30;;;;;;;;;;;23.90;45.90;;;;;;8327355;28;20008;-48
2021/07/12 03:33:31;;;;;;;;;;;23.80;45.90;;;;;;8327733;28;20381;-48
2021/07/12 03:37:32;;;;;;;;;;;23.80;45.90;;;;;;8331484;28;19917;-49
2021/07/12 03:41:32;;;;;;;;;;;23.80;45.90;;;;;;8327534;28;19917;-48
2021/07/12 03:45:33;;;;;;;;;;;23.80;45.90;;;;;;8327366;28;19917;-48
2021/07/12 03:49:33;;;;;;;;;;;23.80;45.90;;;;;;8325804;28;19948;-47
2021/07/12 03:53:34;;;;;;;;;;;23.80;45.90;;;;;;8326894;28;19924;-49
2021/07/12 03:57:34;;;;;;;;;;;23.80;45.90;;;;;;8331423;28;20019;-48
2021/07/12 04:01:35;;;;;;;;;;;23.80;46.00;;;;;;8326970;28;19956;-48
2021/07/12 04:05:36;;;;;;;;;;;23.80;45.90;;;;;;8326912;28;19921;-47
2021/07/12 04:09:36;;;;;;;;;;;23.80;45.90;;;;;;8326562;28;19929;-48
2021/07/12 04:13:37;;;;;;;;;;;23.80;46.00;;;;;;8330535;28;19917;-48
2021/07/12 04:17:41;;;;;;;;;;;23.80;46.00;;;;;;8326656;28;19975;-48
2021/07/12 04:21:41;;;;;;;;;;;23.80;45.90;;;;;;8326476;28;19966;-47
2021/07/12 04:25:41;;;;;;;;;;;23.70;45.90;;;;;;8325806;28;20370;-49
2021/07/12 04:29:42;;;;;;;;;;;23.80;46.00;;;;;;8330998;28;20382;-48
2021/07/12 04:33:43;;;;;;;;;;;23.80;46.50;;;;;;8325977;28;19921;-47
2021/07/12 04:37:43;;;;;;;;;;;23.70;45.90;;;;;;8325664;28;20004;-48
2021/07/12 04:41:44;;;;;;;;;;;23.70;45.90;;;;;;8326623;28;20042;-49
2021/07/12 04:45:44;;;;;;;;;;;23.70;45.90;;;;;;8326088;28;20008;-49
2021/07/12 04:49:44;;;;;;;;;;;23.70;45.90;;;;;;8329822;28;19925;-48
2021/07/12 04:53:45;;;;;;;;;;;23.70;45.90;;;;;;8326331;28;20296;-47
2021/07/12 04:57:46;;;;;;;;;;;23.70;45.90;;;;;;8293474;28;19989;-48
2021/07/12 05:01:47;;;;;;;;;;;23.70;45.90;;;;;;8298683;28;19925;-48
2021/07/12 05:05:47;;;;;;;;;;;23.70;45.90;;;;;;8330332;28;20040;-47
2021/07/12 05:09:48;;;;;;;;;;;23.70;45.90;;;;;;8325564;28;19925;-48
2021/07/12 05:13:49;;;;;;;;;;;23.70;45.90;;;;;;8325237;28;19917;-48
2021/07/12 05:17:49;;;;;;;;;;;23.70;45.80;;;;;;8325773;28;19924;-48
2021/07/12 05:21:49;;;;;;;;;;;23.70;45.80;;;;;;8330132;28;19920;-49
2021/07/12 05:25:50;;;;;;;;;;;23.70;45.80;;;;;;8324845;28;19924;-48
2021/07/12 05:29:50;;;;;;;;;;;23.70;45.70;;;;;;8325388;28;19933;-48
2021/07/12 05:33:51;;;;;;;;;;;23.80;45.60;;;;;;8331061;28;19917;-47
2021/07/12 05:37:51;;;;;;;;;;;23.80;45.50;;;;;;8330529;28;20381;-48
2021/07/12 05:41:52;;;;;;;;;;;23.80;45.50;;;;;;8335397;28;19918;-48
2021/07/12 05:45:52;;;;;;;;;;;23.80;45.50;;;;;;8330812;28;19970;-47
2021/07/12 05:49:53;;;;;;;;;;;23.80;45.50;;;;;;8329978;28;19925;-47
2021/07/12 05:53:53;;;;;;;;;;;23.70;45.50;;;;;;8330695;28;19917;-49
2021/07/12 05:57:54;;;;;;;;;;;23.80;45.50;;;;;;8334931;28;19924;-48
2021/07/12 06:01:54;;;;;;;;;;;23.80;45.60;;;;;;8329751;28;19917;-49
2021/07/12 06:05:55;;;;;;;;;;;23.70;45.60;;;;;;8309918;28;20390;-49
2021/07/12 06:09:55;;;;;;;;;;;23.70;45.60;;;;;;8307755;28;19964;-50
2021/07/12 06:13:56;;;;;;;;;;;23.70;45.70;;;;;;8330479;28;19971;-49
2021/07/12 06:17:56;;;;;;;;;;;23.70;45.70;;;;;;8333855;28;20394;-48
2021/07/12 06:21:57;;;;;;;;;;;23.70;45.70;;;;;;8329664;28;20362;-49
2021/07/12 06:25:57;;;;;;;;;;;23.70;45.70;;;;;;8328970;28;19921;-49
2021/07/12 06:29:58;;;;;;;;;;;23.70;45.70;;;;;;8326281;28;20386;-49
2021/07/12 06:33:58;;;;;;;;;;;23.70;45.70;;;;;;8301320;28;19917;-48
2021/07/12 06:37:58;;;;;;;;;;;23.70;45.70;;;;;;8322097;28;19921;-49
2021/07/12 06:41:59;;;;;;;;;;;23.70;45.70;;;;;;8329413;28;19918;-49
2021/07/12 06:45:59;;;;;;;;;;;23.70;45.70;;;;;;8329206;28;19925;-48
2021/07/12 06:50:00;;;;;;;;;;;23.70;45.70;;;;;;8332767;28;19925;-48
2021/07/12 06:54:00;;;;;;;;;;;23.70;45.70;;;;;;8328766;28;19917;-48
2021/07/12 06:58:04;;;;;;;;;;;23.70;45.80;;;;;;8328626;28;19921;-49
2021/07/12 07:02:04;;;;;;;;;;;23.70;45.70;;;;;;8327894;28;20290;-47
2021/07/12 07:06:05;;;;;;;;;;;23.70;45.80;;;;;;8329022;28;20004;-49
2021/07/12 07:10:07;;;;;;;;;;;23.70;45.80;;;;;;8332318;28;19925;-48
2021/07/12 07:14:07;;;;;;;;;;;23.70;45.80;;;;;;8327871;28;19921;-49
2021/07/12 07:18:08;;;;;;;;;;;23.70;45.80;;;;;;8327858;28;19917;-47
2021/07/12 07:22:08;;;;;;;;;;;23.70;45.80;;;;;;8327395;28;19928;-47
2021/07/12 07:26:10;;;;;;;;;;;23.70;45.80;;;;;;8332307;28;19917;-48
2021/07/12 07:30:11;;;;;;;;;;;23.70;45.80;;;;;;8327680;28;19924;-47
2021/07/12 07:34:12;;;;;;;;;;;23.70;45.80;;;;;;8326855;28;20428;-49
2021/07/12 07:38:12;;;;;;;;;;;23.70;45.90;;;;;;8327489;28;20012;-48
2021/07/12 07:42:13;;;;;;;;;;;23.70;45.90;;;;;;8331740;28;19923;-48
2021/07/12 07:46:13;;;;;;;;;;;23.80;46.00;;;;;;8326786;28;20007;-48
2021/07/12 07:50:14;;;;;;;;;;;23.80;46.00;;;;;;8326798;28;19981;-48
2021/07/12 07:54:15;;;;;;;;;;;23.70;45.90;;;;;;8326458;28;19921;-49
2021/07/12 07:58:15;;;;;;;;;;;23.70;46.00;;;;;;8326139;28;19980;-49
2021/07/12 08:02:15;;;;;;;;;;;23.80;46.00;;;;;;8331455;28;19921;-49
2021/07/12 08:06:17;;;;;;;;;;;23.80;46.00;;;;;;8326267;28;19921;-48
2021/07/12 08:10:19;;;;;;;;;;;23.80;46.00;;;;;;8326010;28;19944;-47
2021/07/12 08:14:19;;;;;;;;;;;23.80;46.00;;;;;;8326419;28;19923;-49
2021/07/12 08:18:22;;;;;;;;;;;23.80;46.00;;;;;;8330858;28;20270;-48
2021/07/12 08:22:22;;;;;;;;;;;23.80;46.00;;;;;;8326040;28;19997;-48
2021/07/12 08:26:22;;;;;;;;;;;23.80;46.00;;;;;;8326402;28;20274;-48
2021/07/12 08:30:23;;;;;;;;;;;23.80;46.10;;;;;;8326258;28;20418;-48
2021/07/12 08:34:24;;;;;;;;;;;23.80;46.10;;;;;;8327093;28;20007;-49
2021/07/12 08:38:24;;;;;;;;;;;23.80;46.20;;;;;;8298241;28;19917;-49
2021/07/12 08:42:25;;;;;;;;;;;23.80;46.20;;;;;;8317310;28;20328;-49
2021/07/12 08:46:26;;;;;;;;;;;23.80;46.20;;;;;;8325579;28;20008;-53
2021/07/12 08:50:27;;;;;;;;;;;23.90;46.20;;;;;;8326188;28;20366;-52
2021/07/12 08:54:28;;;;;;;;;;;23.90;46.10;;;;;;8330679;28;20434;-51
2021/07/12 08:58:33;;;;;;;;;;;23.90;46.10;;;;;;8325294;28;19917;-49
2021/07/12 09:02:37;;;;;;;;;;;23.90;46.10;;;;;;8326115;28;19948;-46
2021/07/12 09:06:37;;;;;;;;;;;23.90;46.20;;;;;;8329026;28;19929;-49
2021/07/12 09:10:37;;;;;;;;;;;23.90;46.20;;;;;;8335941;28;20301;-48
2021/07/12 09:14:42;;;;;;;;;;;24.00;46.30;;;;;;8331581;28;19917;-49
2021/07/12 09:18:42;;;;;;;;;;;24.00;46.20;;;;;;8331179;28;19959;-49
2021/07/12 09:22:43;;;;;;;;;;;24.00;46.30;;;;;;8331372;28;20305;-48
2021/07/12 09:26:48;;;;;;;;;;;24.00;46.30;;;;;;8331604;28;19936;-48
2021/07/12 09:30:49;;;;;;;;;;;24.00;46.30;;;;;;8336242;28;19921;-51
2021/07/12 09:34:54;;;;;;;;;;;24.10;46.10;;;;;;8330835;28;19971;-48
2021/07/12 09:38:54;;;;;;;;;;;24.10;46.10;;;;;;8314364;28;20008;-48
2021/07/12 09:42:55;;;;;;;;;;;24.10;46.10;;;;;;8306701;28;19925;-48
2021/07/12 09:46:56;;;;;;;;;;;24.10;46.00;;;;;;8334781;28;19925;-48
2021/07/12 09:50:57;;;;;;;;;;;24.20;46.00;;;;;;8330736;28;20290;-48
2021/07/12 09:54:57;;;;;;;;;;;24.20;46.00;;;;;;8330364;28;19928;-49
2021/07/12 09:58:58;;;;;;;;;;;24.20;46.00;;;;;;8330040;28;19917;-47
2021/07/12 10:02:58;;;;;;;;;;;24.20;46.10;;;;;;8330239;28;20020;-50
2021/07/12 10:06:59;;;;;;;;;;;24.30;46.20;;;;;;8335121;28;19968;-49
2021/07/12 10:10:59;;;;;;;;;;;24.30;46.20;;;;;;8329136;28;19917;-49
2021/07/12 10:15:00;;;;;;;;;;;24.30;46.10;;;;;;8330358;28;20330;-49
2021/07/12 10:19:00;;;;;;;;;;;24.30;46.10;;;;;;8328573;28;19918;-48
2021/07/12 10:23:02;;;;;;;;;;;24.30;46.00;;;;;;8333699;28;19961;-48
2021/07/12 10:27:03;;;;;;;;;;;24.30;46.50;;;;;;8329621;28;20396;-49
2021/07/12 10:31:15;;;;;;;;;;;24.30;45.90;;;;;;8329486;28;19921;-49
2021/07/12 10:35:33;;;;;;;;;;;24.40;46.00;;;;;;8329013;28;19962;-48
2021/07/12 10:39:52;;;;;;;;;;;24.40;45.90;;;;;;8333507;28;19925;-49
2021/07/12 10:43:53;;;;;;;;;;;24.50;45.90;;;;;;8333023;28;19940;-49
2021/07/12 10:47:56;;;;;;;;;;;24.50;45.90;;;;;;8329083;28;19932;-47
2021/07/12 10:51:57;;;;;;;;;;;24.50;45.80;;;;;;8328750;28;19917;-47
2021/07/12 10:55:57;;;;;;;;;;;24.50;45.80;;;;;;8318969;28;19929;-50
2021/07/12 11:00:08;;;;;;;;;;;24.50;45.80;;;;;;8297352;28;19924;-48
2021/07/12 11:04:32;;;;;;;;;;;24.60;45.90;;;;;;8299729;28;19971;-50
2021/07/12 11:08:48;;;;;;;;;;;24.60;45.80;;;;;;8317932;28;19929;-47
2021/07/12 11:12:50;;;;;;;;;;;24.60;45.80;;;;;;8328366;28;20016;-47
2021/07/12 11:16:51;;;;;;;;;;;24.60;45.80;;;;;;8327497;28;19918;-47
2021/07/12 11:20:56;;;;;;;;;;;24.60;45.80;;;;;;8327475;28;19917;-48
2021/07/12 11:24:59;;;;;;;;;;;24.60;45.80;;;;;;8299634;28;19917;-47
2021/07/12 11:29:01;;;;;;;;;;;24.60;45.80;;;;;;8319001;28;19933;-47
2021/07/12 11:33:01;;;;;;;;;;;24.60;45.80;;;;;;8327361;28;19921;-47
2021/07/12 11:37:06;;;;;;;;;;;24.60;45.80;;;;;;8327705;28;20060;-48
2021/07/12 11:41:07;;;;;;;;;;;24.60;45.80;;;;;;8331782;28;20365;-47
2021/07/12 11:45:09;;;;;;;;;;;24.70;45.80;;;;;;8327227;28;19932;-50
2021/07/12 11:49:09;;;;;;;;;;;24.70;45.80;;;;;;8326804;28;19925;-48
2021/07/12 11:53:10;;;;;;;;;;;24.70;45.90;;;;;;8327016;28;19980;-47
2021/07/12 11:57:14;;;;;;;;;;;24.70;45.80;;;;;;8328012;28;19923;-48
2021/07/12 12:01:20;;;;;;;;;;;24.70;45.80;;;;;;8298200;28;19917;-48
2021/07/12 12:05:21;;;;;;;;;;;24.70;45.80;;;;;;8318943;28;19983;-47
2021/07/12 12:09:21;;;;;;;;;;;24.80;45.90;;;;;;8326731;28;19925;-49
2021/07/12 12:13:22;;;;;;;;;;;24.70;45.80;;;;;;8326091;28;19917;-48
2021/07/12 12:17:23;;;;;;;;;;;24.80;45.90;;;;;;8331568;28;19917;-48
2021/07/12 12:21:24;;;;;;;;;;;24.80;45.80;;;;;;8326492;28;19921;-48
2021/07/12 12:25:26;;;;;;;;;;;24.80;45.80;;;;;;8326062;28;20016;-48
2021/07/12 12:29:27;;;;;;;;;;;24.80;45.90;;;;;;8326475;28;19929;-48
2021/07/12 12:33:29;;;;;;;;;;;24.80;45.80;;;;;;8330634;28;20281;-48
2021/07/12 12:37:39;;;;;;;;;;;24.80;45.80;;;;;;8325793;28;19918;-48
2021/07/12 12:41:47;;;;;;;;;;;24.80;45.80;;;;;;8330993;28;19917;-48
2021/07/12 12:45:51;;;;;;;;;;;24.80;45.60;;;;;;8332443;28;20313;-50
2021/07/12 12:49:52;;;;;;;;;;;24.80;45.60;;;;;;8332032;28;19925;-48
2021/07/12 12:53:56;;;;;;;;;;;24.90;45.70;;;;;;8337075;28;19924;-49
2021/07/12 12:58:05;;;;;;;;;;;24.90;45.60;;;;;;8332534;28;20012;-52
2021/07/12 13:02:06;;;;;;;;;;;25.00;45.60;;;;;;8332579;28;19917;-49
2021/07/12 13:06:06;;;;;;;;;;;25.00;45.70;;;;;;8332574;28;20063;-50
2021/07/12 13:10:11;;;;;;;;;;;25.00;45.60;;;;;;8331663;28;19925;-49
2021/07/12 13:14:11;;;;;;;;;;;24.90;45.60;;;;;;8336811;28;20425;-49
2021/07/12 13:18:12;;;;;;;;;;;24.90;45.60;;;;;;8332040;28;20016;-51
2021/07/12 13:22:20;;;;;;;;;;;24.90;45.70;;;;;;8330825;28;20005;-51
2021/07/12 13:26:27;;;;;;;;;;;24.90;45.60;;;;;;8331716;28;20315;-48
2021/07/12 13:30:29;;;;;;;;;;;24.90;45.60;;;;;;8336007;28;20335;-49
2021/07/12 13:34:29;;;;;;;;;;;25.00;45.70;;;;;;8300908;28;19940;-48
2021/07/12 13:38:30;;;;;;;;;;;24.90;45.60;;;;;;8299173;28;19917;-48
2021/07/12 13:42:31;;;;;;;;;;;25.00;45.70;;;;;;8309575;28;20015;-49
2021/07/12 13:46:31;;;;;;;;;;;25.00;45.70;;;;;;8330428;28;20260;-51
2021/07/12 13:50:32;;;;;;;;;;;25.00;45.70;;;;;;8334960;28;19917;-48
2021/07/12 13:54:33;;;;;;;;;;;25.00;45.70;;;;;;8330612;28;20004;-49
2021/07/12 13:58:34;;;;;;;;;;;25.00;45.60;;;;;;8316093;28;19917;-49
2021/07/12 14:02:34;;;;;;;;;;;25.00;45.60;;;;;;8303212;28;19917;-48
2021/07/12 14:06:35;;;;;;;;;;;25.00;45.80;;;;;;8335119;28;19922;-49
2021/07/12 14:10:35;;;;;;;;;;;25.00;45.60;;;;;;8329859;28;19929;-49
2021/07/12 14:14:36;;;;;;;;;;;25.00;45.60;;;;;;8330128;28;19961;-52
2021/07/12 14:18:36;;;;;;;;;;;25.00;45.60;;;;;;8329902;28;19970;-52
2021/07/12 14:22:37;;;;;;;;;;;25.00;45.60;;;;;;8334028;28;19940;-52
2021/07/12 14:26:38;;;;;;;;;;;25.00;45.60;;;;;;8299158;28;20046;-49
2021/07/12 14:30:38;;;;;;;;;;;25.10;45.70;;;;;;8318170;28;19932;-50
2021/07/12 14:34:39;;;;;;;;;;;25.00;45.60;;;;;;8328652;28;19917;-47
2021/07/12 14:38:40;;;;;;;;;;;25.10;45.60;;;;;;8328813;28;19939;-48
2021/07/12 14:42:40;;;;;;;;;;;25.10;45.50;;;;;;8334025;28;19970;-48
2021/07/12 14:46:44;;;;;;;;;;;25.10;45.50;;;;;;8328395;28;19917;-50
2021/07/12 14:50:47;;;;;;;;;;;25.20;45.50;;;;;;8328466;28;20389;-52
2021/07/12 14:54:47;;;;;;;;;;;25.20;45.50;;;;;;8322989;28;19925;-50
2021/07/12 14:58:48;;;;;;;;;;;25.20;45.50;;;;;;8299923;28;19918;-49
2021/07/12 15:02:49;;;;;;;;;;;25.20;45.50;;;;;;8325707;28;19917;-49
2021/07/12 15:06:49;;;;;;;;;;;25.20;45.50;;;;;;8328398;28;20490;-50
2021/07/12 15:10:50;;;;;;;;;;;25.20;45.50;;;;;;8327814;28;19925;-52
2021/07/12 15:14:50;;;;;;;;;;;25.20;46.00;;;;;;8329277;28;19917;-48
2021/07/12 15:18:51;;;;;;;;;;;25.10;45.50;;;;;;8331549;28;20456;-48
2021/07/12 15:22:51;;;;;;;;;;;25.20;45.50;;;;;;8327562;28;19971;-48
2021/07/12 15:26:52;;;;;;;;;;;25.20;45.50;;;;;;8327169;28;20035;-49
2021/07/12 15:30:53;;;;;;;;;;;25.20;45.50;;;;;;8323310;28;19944;-50
2021/07/12 15:34:56;;;;;;;;;;;25.20;45.50;;;;;;8298904;28;19920;-51
2021/07/12 15:38:56;;;;;;;;;;;25.20;45.40;;;;;;8322410;28;19929;-50
2021/07/12 15:42:56;;;;;;;;;;;25.20;45.50;;;;;;8310380;28;20008;-51
2021/07/12 15:46:58;;;;;;;;;;;25.20;45.40;;;;;;8302040;28;19952;-49
2021/07/12 15:50:58;;;;;;;;;;;25.20;45.50;;;;;;8331900;28;20381;-48
2021/07/12 15:54:59;;;;;;;;;;;25.20;45.40;;;;;;8327118;28;19925;-47
2021/07/12 15:58:59;;;;;;;;;;;25.20;45.50;;;;;;8326470;28;19922;-47
2021/07/12 16:03:01;;;;;;;;;;;25.20;45.40;;;;;;8326678;28;19917;-48
2021/07/12 16:07:02;;;;;;;;;;;25.20;45.40;;;;;;8327290;28;19976;-49
2021/07/12 16:11:04;;;;;;;;;;;25.20;45.40;;;;;;8330679;28;19917;-48
2021/07/12 16:15:05;;;;;;;;;;;25.30;45.50;;;;;;8326558;28;19917;-48
2021/07/12 16:19:06;;;;;;;;;;;25.30;45.50;;;;;;8326022;28;20362;-52
2021/07/12 16:23:07;;;;;;;;;;;25.30;45.40;;;;;;8326277;28;19917;-48
2021/07/12 16:27:07;;;;;;;;;;;25.30;45.40;;;;;;8330813;28;19936;-47
2021/07/12 16:31:08;;;;;;;;;;;25.30;45.40;;;;;;8325986;28;19917;-48
2021/07/12 16:35:09;;;;;;;;;;;25.30;45.40;;;;;;8306759;28;19929;-47
2021/07/12 16:39:10;;;;;;;;;;;25.30;45.40;;;;;;8303134;28;19914;-47
2021/07/12 16:43:10;;;;;;;;;;;25.30;45.70;;;;;;8328961;28;19917;-51
2021/07/12 16:47:13;;;;;;;;;;;25.30;45.60;;;;;;8327253;28;19932;-49
2021/07/12 16:51:14;;;;;;;;;;;25.30;45.50;;;;;;8326335;28;19920;-48
2021/07/12 16:55:16;;;;;;;;;;;25.30;45.50;;;;;;8325761;28;20066;-48
2021/07/12 16:59:17;;;;;;;;;;;25.30;45.40;;;;;;8325196;28;20287;-49
2021/07/12 17:03:17;;;;;;;;;;;25.30;45.40;;;;;;8330501;28;19917;-50
2021/07/12 17:07:18;;;;;;;;;;;25.30;45.40;;;;;;8325552;28;20021;-49
2021/07/12 17:11:18;;;;;;;;;;;25.30;45.40;;;;;;8326190;28;19921;-49
2021/07/12 17:15:19;;;;;;;;;;;25.30;45.70;;;;;;8325919;28;19967;-48
2021/07/12 17:19:19;;;;;;;;;;;25.40;45.60;;;;;;8329611;28;19913;-48
2021/07/12 17:23:20;;;;;;;;;;;25.30;45.50;;;;;;8325474;28;19917;-48
2021/07/12 17:27:20;;;;;;;;;;;25.30;45.50;;;;;;8328063;28;19925;-48
2021/07/12 17:31:21;;;;;;;;;;;25.30;46.10;;;;;;8330387;28;19925;-49
2021/07/12 17:35:22;;;;;;;;;;;25.30;46.00;;;;;;8331621;28;19913;-48
2021/07/12 17:39:22;;;;;;;;;;;25.30;46.60;;;;;;8335545;28;20384;-48
2021/07/12 17:43:23;;;;;;;;;;;25.20;47.30;;;;;;8330789;28;19917;-48
2021/07/12 17:47:24;;;;;;;;;;;25.20;48.00;;;;;;8331303;28;20015;-48
2021/07/12 17:51:24;;;;;;;;;;;25.20;48.70;;;;;;8331005;28;19963;-47
2021/07/12 17:55:25;;;;;;;;;;;25.20;48.10;;;;;;8334793;28;19928;-48
2021/07/12 17:59:25;;;;;;;;;;;25.20;49.00;;;;;;8330481;28;20091;-48
2021/07/12 18:03:26;;;;;;;;;;;25.20;48.30;;;;;;8330472;28;20333;-48
2021/07/12 18:07:27;;;;;;;;;;;25.20;48.30;;;;;;8330073;28;20366;-49
2021/07/12 18:11:27;;;;;;;;;;;25.20;48.30;;;;;;8334771;28;20020;-47
2021/07/12 18:15:28;;;;;;;;;;;25.20;48.60;;;;;;8330176;28;20374;-49
2021/07/12 18:19:28;;;;;;;;;;;25.10;48.80;;;;;;8307743;28;19922;-49
2021/07/12 18:23:29;;;;;;;;;;;25.10;48.60;;;;;;8308935;28;19928;-48
2021/07/12 18:27:29;;;;;;;;;;;25.10;48.30;;;;;;8329650;28;19928;-51
2021/07/12 18:31:30;;;;;;;;;;;25.10;48.80;;;;;;8333677;28;19996;-50
2021/07/12 18:35:30;;;;;;;;;;;25.10;48.20;;;;;;8328661;28;19917;-49
2021/07/12 18:39:31;;;;;;;;;;;25.20;49.40;;;;;;8328056;28;19913;-49
2021/07/12 18:43:31;;;;;;;;;;;25.10;48.90;;;;;;8328717;28;19917;-47
2021/07/12 18:47:32;;;;;;;;;;;25.10;48.90;;;;;;8333817;28;19999;-48
2021/07/12 18:51:32;;;;;;;;;;;25.10;48.60;;;;;;8330990;28;20378;-47
2021/07/12 18:55:33;;;;;;;;;;;25.10;48.80;;;;;;8332407;28;20004;-47
2021/07/12 18:59:34;;;;;;;;;;;25.00;48.50;;;;;;8328735;28;19913;-49
2021/07/12 19:03:35;;;;;;;;;;;25.10;48.90;;;;;;8333519;28;19917;-51
2021/07/12 19:07:35;;;;;;;;;;;25.10;49.00;;;;;;8327532;28;20000;-51
2021/07/12 19:11:36;;;;;;;;;;;25.10;48.90;;;;;;8306733;28;19956;-48
2021/07/12 19:15:37;;;;;;;;;;;25.10;49.00;;;;;;8309191;28;19917;-50
2021/07/12 19:19:37;;;;;;;;;;;25.00;48.20;;;;;;8327556;28;19917;-51
2021/07/12 19:23:38;;;;;;;;;;;25.10;48.30;;;;;;8332581;28;20271;-48
2021/07/12 19:27:39;;;;;;;;;;;25.10;48.00;;;;;;8328178;28;19929;-46
2021/07/12 19:31:40;;;;;;;;;;;25.10;48.20;;;;;;8327317;28;19944;-49
2021/07/12 19:35:40;;;;;;;;;;;25.00;47.80;;;;;;8325762;28;19924;-48
2021/07/12 19:39:41;;;;;;;;;;;25.00;47.80;;;;;;8332293;28;19913;-49
2021/07/12 19:43:42;;;;;;;;;;;25.00;47.70;;;;;;8326744;28;19924;-48
2021/07/12 19:47:42;;;;;;;;;;;25.10;47.90;;;;;;8327370;28;20008;-49
2021/07/12 19:51:43;;;;;;;;;;;25.10;47.80;;;;;;8326677;28;20062;-51
2021/07/12 19:55:43;;;;;;;;;;;25.00;47.60;;;;;;8326549;28;19917;-51
2021/07/12 19:59:44;;;;;;;;;;;25.00;47.50;;;;;;8331775;28;19917;-49
2021/07/12 20:03:44;;;;;;;;;;;25.00;47.50;;;;;;8326797;28;19917;-48
2021/07/12 20:07:45;;;;;;;;;;;25.00;47.50;;;;;;8326404;28;20020;-48
2021/07/12 20:11:47;;;;;;;;;;;25.00;47.50;;;;;;8326147;28;21347;-50
2021/07/12 20:15:48;;;;;;;;;;;25.00;47.50;;;;;;8331303;28;19925;-52
2021/07/12 20:19:48;;;;;;;;;;;25.00;47.40;;;;;;8326218;28;19921;-49
2021/07/12 20:23:49;;;;;;;;;;;25.00;47.40;;;;;;8326697;28;19971;-50
2021/07/12 20:27:49;;;;;;;;;;;25.00;47.30;;;;;;8326495;28;20007;-48
2021/07/12 20:31:55;;;;;;;;;;;25.00;47.40;;;;;;8330639;28;19924;-48
2021/07/12 20:35:55;;;;;;;;;;;25.00;47.40;;;;;;8326339;28;19917;-51
2021/07/12 20:39:56;;;;;;;;;;;25.00;47.40;;;;;;8327023;28;19913;-49
2021/07/12 20:43:56;;;;;;;;;;;25.00;47.30;;;;;;8325757;28;19917;-49
2021/07/12 20:47:57;;;;;;;;;;;25.00;47.30;;;;;;8326383;28;21770;-51
2021/07/12 20:51:57;;;;;;;;;;;25.00;47.30;;;;;;8330453;28;19917;-49
2021/07/12 20:55:58;;;;;;;;;;;25.00;47.50;;;;;;8325417;28;19921;-49
2021/07/12 20:59:58;;;;;;;;;;;25.00;47.70;;;;;;8326297;28;20399;-49
2021/07/12 21:03:59;;;;;;;;;;;25.00;47.60;;;;;;8332385;28;20004;-49
2021/07/12 21:07:59;;;;;;;;;;;25.00;47.50;;;;;;8336566;28;19929;-48
2021/07/12 21:12:00;;;;;;;;;;;25.00;47.40;;;;;;8332155;28;19917;-47
2021/07/12 21:16:00;;;;;;;;;;;25.00;47.40;;;;;;8331959;28;20032;-50
2021/07/12 21:20:01;;;;;;;;;;;25.00;47.40;;;;;;8331346;28;20302;-54
2021/07/12 21:24:02;;;;;;;;;;;25.00;47.50;;;;;;8334854;28;19914;-49
2021/07/12 21:28:03;;;;;;;;;;;25.00;47.50;;;;;;8333412;28;19921;-48
2021/07/12 21:32:04;;;;;;;;;;;25.00;47.40;;;;;;8331228;28;19921;-49
2021/07/12 21:36:07;;;;;;;;;;;25.00;47.50;;;;;;8331603;28;19917;-49
2021/07/12 21:40:07;;;;;;;;;;;25.00;47.60;;;;;;8330560;28;19917;-51
2021/07/12 21:44:08;;;;;;;;;;;25.00;47.50;;;;;;8335441;28;19975;-52
2021/07/12 21:48:08;;;;;;;;;;;25.00;47.20;;;;;;8330905;28;19936;-48
2021/07/12 21:52:09;;;;;;;;;;;25.00;47.20;;;;;;8330465;28;19963;-49
2021/07/12 21:56:09;;;;;;;;;;;25.00;47.20;;;;;;8330567;28;20349;-49
2021/07/12 22:00:20;;;;;;;;;;;25.00;47.30;;;;;;8335142;28;20271;-49
2021/07/12 22:04:20;;;;;;;;;;;25.00;47.40;;;;;;8305210;28;19925;-49
2021/07/12 22:08:21;;;;;;;;;;;25.00;47.40;;;;;;8319819;28;20294;-49
2021/07/12 22:12:21;;;;;;;;;;;25.00;47.40;;;;;;8328997;28;19913;-49
2021/07/12 22:16:22;;;;;;;;;;;25.00;47.60;;;;;;8329752;28;20640;-49
2021/07/12 22:20:23;;;;;;;;;;;25.00;47.50;;;;;;8334410;28;20442;-50
2021/07/12 22:24:23;;;;;;;;;;;25.00;47.50;;;;;;8330133;28;19971;-49
2021/07/12 22:28:27;;;;;;;;;;;25.00;47.30;;;;;;8329062;28;20275;-49
2021/07/12 22:32:28;;;;;;;;;;;25.00;47.30;;;;;;8329784;28;19913;-50
2021/07/12 22:36:28;;;;;;;;;;;25.00;47.30;;;;;;8334152;28;20302;-48
2021/07/12 22:40:29;;;;;;;;;;;25.00;47.40;;;;;;8329133;28;19917;-51
2021/07/12 22:44:29;;;;;;;;;;;25.00;47.60;;;;;;8329735;28;20008;-50
2021/07/12 22:48:30;;;;;;;;;;;25.00;47.60;;;;;;8328892;28;19928;-49
2021/07/12 22:52:30;;;;;;;;;;;24.90;47.60;;;;;;8329786;28;19917;-49
2021/07/12 22:56:31;;;;;;;;;;;25.00;47.60;;;;;;8332223;28;20410;-48
2021/07/12 23:00:31;;;;;;;;;;;24.90;47.60;;;;;;8328769;28;19925;-47
2021/07/12 23:04:32;;;;;;;;;;;24.90;47.30;;;;;;8328229;28;20355;-48
2021/07/12 23:08:32;;;;;;;;;;;25.00;47.40;;;;;;8329041;28;20286;-48
2021/07/12 23:12:32;;;;;;;;;;;25.00;47.40;;;;;;8333151;28;20249;-49
2021/07/12 23:16:33;;;;;;;;;;;24.90;47.30;;;;;;8327793;28;20009;-52
2021/07/12 23:20:33;;;;;;;;;;;24.90;47.40;;;;;;8328325;28;19917;-48
2021/07/12 23:24:34;;;;;;;;;;;24.90;47.40;;;;;;8327128;28;19917;-47